Classifiche di sempre
Migliori tempi personali validi di team tra tutti gli eventi e le stagioni. Ogni team compare una sola volta per divisione.
Cerca per nome e apri la pagina in cui è classificato questo record di divisione.
137,321 team in classifica
| Pos. | Pos. AG | Team | Nazionalità | Categoria età | TempoMiglior tempo | Distacco |
|---|---|---|---|---|---|---|
| 128651 | #46475 | Shak Zamanie & Sam ConnellyM 30-34 · AG #46475 | -- | M 30-34 | 1:40:11 | +52:31 |
| 128652 | #18236 | James Beattie & Chris BeardGBR · M 40-44 · AG #18236 | GBR | M 40-44 | 1:40:11 | +52:31 |
| 128653 | -- | Seng Jie Lui & Jamerson ChuaSIN · M MU29 | SIN | M MU29 | 1:40:11 | +52:31 |
| 128654 | #46476 | Kico Tadeo Olmo & Paco Tadeo OlmosESP · M 30-34 · AG #46476 | ESP | M 30-34 | 1:40:11 | +52:31 |
| 128655 | #15095 | Joe Meenan & Ross GrantGBR · M 35-39 · AG #15095 | GBR | M 35-39 | 1:40:11 | +52:31 |
| 128656 | #15096 | JUN WEN TAN & SENG CHIEW CHEONGMAS · M 35-39 · AG #15096 | MAS | M 35-39 | 1:40:11 | +52:31 |
| 128657 | #9478 | Adrian Ortega & Ivan ArmendarizUSA · M 16-24 · AG #9478 | USA | M 16-24 | 1:40:11 | +52:31 |
| 128658 | #46477 | Govindaraja Prabhu & Dinesh PaiIND · M 30-34 · AG #46477 | IND | M 30-34 | 1:40:11 | +52:31 |
| 128659 | #46478 | Roberto Castellanos Guzman & Jose Juan Alvarez VazquezMEX · M 30-34 · AG #46478 | MEX | M 30-34 | 1:40:12 | +52:32 |
| 128660 | #16503 | Kelvin Yerena & Horacio RodriguezMEX · M 25-29 · AG #16503 | MEX | M 25-29 | 1:40:12 | +52:32 |
| 128661 | #448 | Paul Williams & Matt WhitakerGBR · M 55-59 · AG #448 | GBR | M 55-59 | 1:40:12 | +52:32 |
| 128662 | #2822 | SANDOR MOL & JOHAN VAN RIJNNED · M 50-54 · AG #2822 | NED | M 50-54 | 1:40:12 | +52:32 |
| 128663 | -- | Angelos Fritze & Angelos Fritze & Leander Fritze & Leander FritzeGER · M MU29 | GER | M MU29 | 1:40:12 | +52:32 |
| 128664 | -- | Shaun Loh & Don CheeSIN · M MU29 | SIN | M MU29 | 1:40:12 | +52:32 |
| 128665 | #924 | Christian Seigert & Jonas KlugeGER · M 16-29 · AG #924 | GER | M 16-29 | 1:40:12 | +52:32 |
| 128666 | #2823 | Roger Huang & Naohito ShiraishiM 50-54 · AG #2823 | -- | M 50-54 | 1:40:12 | +52:32 |
| 128667 | #46479 | Zachary Provencher & Martin SalvadorM 30-34 · AG #46479 | -- | M 30-34 | 1:40:12 | +52:32 |
| 128668 | #9479 | Harrison Bellamy & Sean StephensAUS · M 16-24 · AG #9479 | AUS | M 16-24 | 1:40:12 | +52:32 |
| 128669 | #46480 | Filip Cudny & Kamil WróblewskiPOL · M 30-34 · AG #46480 | POL | M 30-34 | 1:40:12 | +52:32 |
| 128670 | #46481 | Lucas Pohl & Simon LangGER · M 30-34 · AG #46481 | GER | M 30-34 | 1:40:13 | +52:33 |
| 128671 | #46482 | Charlie Cotton & Chris CottonGBR · M 30-34 · AG #46482 | GBR | M 30-34 | 1:40:13 | +52:33 |
| 128672 | #18237 | Daisuke Nomura & Ryusei FunatsuJPN · M 40-44 · AG #18237 | JPN | M 40-44 | 1:40:13 | +52:33 |
| 128673 | #9480 | Sachin Hockey & Joshua LodewykRSA · M 16-24 · AG #9480 | RSA | M 16-24 | 1:40:13 | +52:33 |
| 128674 | #15097 | Parivesh Ohri & Rohan GanpathyIND · M 35-39 · AG #15097 | IND | M 35-39 | 1:40:13 | +52:33 |
| 128675 | -- | Daaf De Jonge & Noah GeschiereNED · M MU29 | NED | M MU29 | 1:40:13 | +52:33 |
Pagina 5,147 di 5,493